createdAt,value
2022-10-17T00:01:06.715Z,101895.63
2022-10-17T00:03:36.478Z,101897.66
2022-10-17T00:06:12.914Z,101901.22
2022-10-17T00:08:41.802Z,101900.34
2022-10-17T00:11:16.189Z,101897.66
2022-10-17T00:13:43.718Z,101904.94
2022-10-17T00:16:13.684Z,101902.31
2022-10-17T00:18:41.418Z,101892.09
2022-10-17T00:21:18.112Z,101893.97
2022-10-17T00:23:46.709Z,101896.94
2022-10-17T00:26:15.183Z,101902.34
2022-10-17T00:28:42.823Z,101894.00
2022-10-17T00:31:11.099Z,101895.09
2022-10-17T00:33:39.607Z,101890.72
2022-10-17T00:36:10.333Z,101898.84
2022-10-17T00:38:37.791Z,101908.88
2022-10-17T00:41:06.137Z,101905.28
2022-10-17T00:43:57.935Z,101909.06
2022-10-17T00:46:29.615Z,101913.56
2022-10-17T00:48:58.980Z,101901.69
2022-10-17T00:51:50.284Z,101915.38
2022-10-17T00:54:21.787Z,101916.06
2022-10-17T00:56:53.484Z,101914.56
2022-10-17T00:59:23.328Z,101918.34
2022-10-17T01:02:06.468Z,101920.00
2022-10-17T01:04:34.148Z,101916.66
2022-10-17T01:07:03.376Z,101910.25
2022-10-17T01:09:31.869Z,101917.53
2022-10-17T01:12:31.929Z,101910.25
2022-10-17T01:15:18.082Z,101912.34
2022-10-17T01:18:07.494Z,101908.66
2022-10-17T01:20:49.877Z,101916.38
2022-10-17T01:23:42.217Z,101914.69
2022-10-17T01:26:36.445Z,101910.75
2022-10-17T01:29:31.262Z,101914.53
2022-10-17T01:32:14.719Z,101915.56
2022-10-17T01:35:26.422Z,101914.53
2022-10-17T01:38:33.816Z,101902.81
2022-10-17T01:41:15.535Z,101904.72
2022-10-17T01:44:07.866Z,101912.22
2022-10-17T01:46:49.418Z,101900.56
2022-10-17T01:49:29.883Z,101901.41
2022-10-17T01:52:35.330Z,101900.38
2022-10-17T01:55:23.120Z,101897.03
2022-10-17T01:58:03.995Z,101896.84
2022-10-17T02:00:34.604Z,101892.47
2022-10-17T02:03:07.601Z,101899.34
2022-10-17T02:05:44.278Z,101908.50
2022-10-17T02:08:13.257Z,101892.69
2022-10-17T02:11:08.169Z,101893.91
2022-10-17T02:14:02.302Z,101889.72
2022-10-17T02:16:36.471Z,101887.38
2022-10-17T02:19:16.935Z,101890.53
2022-10-17T02:22:05.885Z,101893.00
2022-10-17T02:24:34.018Z,101894.47
2022-10-17T02:30:26.608Z,101887.25
2022-10-17T02:33:43.015Z,101888.72
2022-10-17T02:36:28.103Z,101880.91
2022-10-17T02:39:08.088Z,101885.66
2022-10-17T02:41:49.560Z,101883.13
2022-10-17T02:44:47.971Z,101878.97
2022-10-17T02:47:39.583Z,101874.56
2022-10-17T02:50:08.339Z,101872.75
2022-10-17T02:52:47.177Z,101875.63
2022-10-17T02:55:20.864Z,101872.91
2022-10-17T02:57:55.189Z,101868.63
2022-10-17T03:00:24.361Z,101871.53
2022-10-17T03:02:54.204Z,101869.22
2022-10-17T03:05:43.213Z,101870.22
2022-10-17T03:08:12.575Z,101866.06
2022-10-17T03:10:40.223Z,101867.50
2022-10-17T03:13:14.351Z,101874.13
2022-10-17T03:15:43.631Z,101876.47
2022-10-17T03:18:13.253Z,101877.09
2022-10-17T03:20:40.827Z,101885.84
2022-10-17T03:23:09.584Z,101885.38
2022-10-17T03:25:38.552Z,101885.38
2022-10-17T03:28:06.172Z,101886.59
2022-10-17T03:30:34.237Z,101882.47
2022-10-17T03:33:01.565Z,101880.50
2022-10-17T03:36:06.211Z,101876.75
2022-10-17T03:38:35.513Z,101882.34
2022-10-17T03:41:04.925Z,101881.97
2022-10-17T03:43:38.220Z,101879.91
2022-10-17T03:46:07.677Z,101870.72
2022-10-17T03:48:36.699Z,101864.91
2022-10-17T03:51:12.451Z,101866.34
2022-10-17T03:53:47.661Z,101867.53
2022-10-17T03:56:22.304Z,101869.84
2022-10-17T03:58:57.656Z,101868.34
2022-10-17T04:01:25.675Z,101875.22
2022-10-17T04:03:55.770Z,101874.13
2022-10-17T04:06:26.253Z,101877.34
2022-10-17T04:08:55.178Z,101876.53
2022-10-17T04:11:28.315Z,101883.38
2022-10-17T04:14:00.333Z,101887.91
2022-10-17T04:16:29.671Z,101897.25
2022-10-17T04:19:02.028Z,101905.19
2022-10-17T04:21:36.700Z,101907.72
2022-10-17T04:24:07.446Z,101916.47
2022-10-17T04:26:53.345Z,101921.03
2022-10-17T04:29:23.202Z,101926.72
2022-10-17T04:31:53.458Z,101931.06
2022-10-17T04:34:37.412Z,101936.25
2022-10-17T04:37:07.112Z,101939.41
2022-10-17T04:39:35.643Z,101943.78
2022-10-17T04:42:03.507Z,101948.75
2022-10-17T04:44:31.721Z,101936.09
2022-10-17T04:47:01.588Z,101941.97
2022-10-17T04:49:29.121Z,101943.22
2022-10-17T04:52:03.474Z,101945.94
2022-10-17T04:54:57.246Z,101946.06
2022-10-17T04:57:25.456Z,101942.97
2022-10-17T05:00:00.767Z,101946.50
2022-10-17T05:02:46.780Z,101951.25
2022-10-17T05:05:15.434Z,101951.88
2022-10-17T05:07:54.621Z,101951.91
2022-10-17T05:10:26.022Z,101949.22
2022-10-17T05:12:54.558Z,101954.41
2022-10-17T05:15:24.573Z,101956.31
2022-10-17T05:17:58.173Z,101955.69
2022-10-17T05:20:28.256Z,101959.63
2022-10-17T05:22:56.671Z,101956.09
2022-10-17T05:25:24.849Z,101947.16
2022-10-17T05:27:52.263Z,101954.84
2022-10-17T05:30:19.726Z,101960.25
2022-10-17T05:32:53.224Z,101964.41
2022-10-17T05:35:21.336Z,101954.84
2022-10-17T05:37:49.133Z,101963.34
2022-10-17T05:40:24.143Z,101959.41
2022-10-17T05:42:53.954Z,101957.75
2022-10-17T05:45:22.509Z,101964.00
2022-10-17T05:47:50.361Z,101955.91
2022-10-17T05:50:21.990Z,101963.34
2022-10-17T05:53:02.454Z,101977.88
2022-10-17T05:55:30.592Z,101971.47
2022-10-17T05:58:01.124Z,101972.50
2022-10-17T06:00:34.449Z,101972.69
2022-10-17T06:03:02.852Z,101969.78
2022-10-17T06:05:30.800Z,101974.38
2022-10-17T06:08:01.833Z,101976.44
2022-10-17T06:10:34.273Z,101984.53
2022-10-17T06:13:02.051Z,101971.88
2022-10-17T06:15:29.947Z,101979.13
2022-10-17T06:18:09.085Z,101976.78
2022-10-17T06:20:36.729Z,101977.22
2022-10-17T06:23:04.296Z,101972.81
2022-10-17T06:25:59.616Z,101974.25
2022-10-17T06:28:27.848Z,101982.34
2022-10-17T06:30:55.961Z,101995.63
2022-10-17T06:33:24.830Z,101993.28
2022-10-17T06:35:55.305Z,102001.59
2022-10-17T06:38:24.941Z,102002.16
2022-10-17T06:40:57.680Z,101998.88
2022-10-17T06:43:27.773Z,101993.06
2022-10-17T06:46:21.399Z,101995.75
2022-10-17T06:48:59.759Z,102006.97
2022-10-17T06:51:38.369Z,102007.56
2022-10-17T06:54:10.446Z,102022.94
2022-10-17T06:56:50.146Z,102029.38
2022-10-17T06:59:39.668Z,102020.28
2022-10-17T07:02:25.649Z,102021.09
2022-10-17T07:04:54.645Z,102021.09
2022-10-17T07:07:23.049Z,102041.06
2022-10-17T07:09:52.094Z,102045.63
2022-10-17T07:12:20.694Z,102047.22
2022-10-17T07:14:50.674Z,102047.22
2022-10-17T07:17:19.363Z,102057.22
2022-10-17T07:19:47.657Z,102056.16
2022-10-17T07:22:15.229Z,102065.91
2022-10-17T07:24:46.951Z,102069.81
2022-10-17T07:27:53.644Z,102074.56
2022-10-17T07:30:23.469Z,102089.13
2022-10-17T07:33:00.060Z,102093.69
2022-10-17T07:35:28.026Z,102098.25
2022-10-17T07:37:57.707Z,102107.81
2022-10-17T07:40:25.628Z,102120.94
2022-10-17T07:42:53.585Z,102127.78
2022-10-17T07:45:21.386Z,102130.75
2022-10-17T07:47:48.984Z,102129.31
2022-10-17T07:50:17.877Z,102125.59
2022-10-17T07:52:45.335Z,102127.66
2022-10-17T07:55:16.046Z,102129.31
2022-10-17T07:57:43.733Z,102128.31
2022-10-17T08:00:13.331Z,102124.56
2022-10-17T08:02:41.855Z,102132.47
2022-10-17T08:05:09.470Z,102134.53
2022-10-17T08:07:36.912Z,102129.53
2022-10-17T08:10:04.806Z,102132.09
2022-10-17T08:12:36.042Z,102142.00
2022-10-17T08:15:05.853Z,102129.06
2022-10-17T08:17:36.512Z,102137.38
2022-10-17T08:20:05.651Z,102134.44
2022-10-17T08:22:34.202Z,102132.72
2022-10-17T08:25:01.789Z,102136.41
2022-10-17T08:27:29.383Z,102150.72
2022-10-17T08:29:57.621Z,102149.22
2022-10-17T08:32:27.733Z,102146.69
2022-10-17T08:34:57.088Z,102149.41
2022-10-17T08:37:24.514Z,102158.91
2022-10-17T08:39:51.896Z,102155.56
2022-10-17T08:42:51.266Z,102159.63
2022-10-17T08:45:42.137Z,102159.19
2022-10-17T08:48:15.190Z,102164.41
2022-10-17T08:50:59.592Z,102163.94
2022-10-17T08:53:59.006Z,102165.63
2022-10-17T08:56:44.459Z,102178.72
2022-10-17T08:59:23.830Z,102181.47
2022-10-17T09:02:03.514Z,102181.91
2022-10-17T09:05:02.168Z,102181.53
2022-10-17T09:07:46.577Z,102185.94
2022-10-17T09:10:44.154Z,102183.63
2022-10-17T09:13:42.366Z,102182.31
2022-10-17T09:16:19.333Z,102181.56
2022-10-17T09:19:05.018Z,102188.44
2022-10-17T09:21:57.793Z,102180.09
2022-10-17T09:24:48.491Z,102177.09
2022-10-17T09:27:43.126Z,102179.44
2022-10-17T09:30:40.530Z,102185.94
2022-10-17T09:33:35.280Z,102183.06
2022-10-17T09:36:23.708Z,102177.75
2022-10-17T09:38:58.540Z,102173.19
2022-10-17T09:41:46.797Z,102171.00
2022-10-17T09:44:25.273Z,102172.50
2022-10-17T09:47:06.030Z,102177.44
2022-10-17T09:49:36.668Z,102186.78
2022-10-17T09:52:06.173Z,102175.59
2022-10-17T09:54:53.204Z,102177.91
2022-10-17T09:57:22.601Z,102180.34
2022-10-17T10:00:06.106Z,102186.84
2022-10-17T10:02:41.129Z,102188.72
2022-10-17T10:05:22.048Z,102191.75
2022-10-17T10:08:04.206Z,102185.69
2022-10-17T10:10:32.733Z,102197.81
2022-10-17T10:13:14.360Z,102203.84
2022-10-17T10:15:50.489Z,102204.66
2022-10-17T10:18:27.113Z,102215.00
2022-10-17T10:21:17.142Z,102218.38
2022-10-17T10:23:46.730Z,102216.53
2022-10-17T10:26:24.782Z,102208.50
2022-10-17T10:29:05.957Z,102202.16
2022-10-17T10:31:38.879Z,102195.19
2022-10-17T10:34:26.658Z,102202.22
2022-10-17T10:36:59.744Z,102204.56
2022-10-17T10:40:05.958Z,102198.03
2022-10-17T10:42:38.240Z,102193.16
2022-10-17T10:45:29.249Z,102187.53
2022-10-17T10:48:25.546Z,102182.81
2022-10-17T10:51:01.803Z,102181.53
2022-10-17T10:53:39.451Z,102183.22
2022-10-17T10:56:21.250Z,102172.97
2022-10-17T10:59:21.154Z,102176.28
2022-10-17T11:02:00.432Z,102183.75
2022-10-17T11:04:52.491Z,102187.63
2022-10-17T11:07:25.320Z,102183.03
2022-10-17T11:09:55.678Z,102184.44
2022-10-17T11:12:35.651Z,102191.44
2022-10-17T11:15:44.251Z,102178.66
2022-10-17T11:18:23.270Z,102174.53
2022-10-17T11:21:04.229Z,102185.75
2022-10-17T11:23:48.411Z,102183.75
2022-10-17T11:26:39.253Z,102179.25
2022-10-17T11:29:13.494Z,102182.09
2022-10-17T11:31:47.632Z,102181.03
2022-10-17T11:34:33.601Z,102173.34
2022-10-17T11:37:13.305Z,102168.38
2022-10-17T11:39:58.707Z,102161.16
2022-10-17T11:42:42.010Z,102163.78
2022-10-17T11:45:25.852Z,102173.97
2022-10-17T11:48:00.529Z,102168.03
2022-10-17T11:53:26.659Z,102160.72
2022-10-17T11:55:58.754Z,102163.03
2022-10-17T11:58:42.494Z,102159.41
2022-10-17T12:01:23.983Z,102167.22
2022-10-17T12:04:14.413Z,102163.66
2022-10-17T12:07:06.862Z,102147.19
2022-10-17T12:10:02.037Z,102140.00
2022-10-17T12:12:33.781Z,102126.38
2022-10-17T12:15:13.545Z,102128.41
2022-10-17T12:17:47.268Z,102127.94
2022-10-17T12:20:21.555Z,102132.44
2022-10-17T12:22:51.982Z,102127.44
2022-10-17T12:25:33.836Z,102146.88
2022-10-17T12:28:07.090Z,102140.25
2022-10-17T12:30:35.326Z,102145.69
2022-10-17T12:33:17.790Z,102144.75
2022-10-17T12:35:45.672Z,102137.88
2022-10-17T12:38:23.028Z,102143.66
2022-10-17T12:40:52.868Z,102134.56
2022-10-17T12:43:29.499Z,102144.16
2022-10-17T12:45:58.334Z,102140.94
2022-10-17T12:48:35.102Z,102144.41
2022-10-17T12:51:31.125Z,102149.13
2022-10-17T12:54:15.480Z,102144.03
2022-10-17T12:56:46.108Z,102142.97
2022-10-17T12:59:29.810Z,102142.16
2022-10-17T13:02:02.020Z,102138.63
2022-10-17T13:04:32.020Z,102139.06
2022-10-17T13:07:01.580Z,102121.69
2022-10-17T13:09:44.148Z,102122.41
2022-10-17T13:12:26.772Z,102115.41
2022-10-17T13:14:55.456Z,102109.16
2022-10-17T13:17:29.588Z,102105.75
2022-10-17T13:19:58.232Z,102100.19
2022-10-17T13:22:32.687Z,102097.81
2022-10-17T13:25:16.264Z,102089.44
2022-10-17T13:27:48.452Z,102096.41
2022-10-17T13:30:30.910Z,102091.78
2022-10-17T13:33:02.358Z,102087.97
2022-10-17T13:35:58.867Z,102092.94
2022-10-17T13:38:28.886Z,102086.53
2022-10-17T13:41:02.038Z,102085.47
2022-10-17T13:43:41.999Z,102088.66
2022-10-17T13:46:36.744Z,102092.56
2022-10-17T13:49:30.372Z,102094.59
2022-10-17T13:51:59.539Z,102099.41
2022-10-17T13:54:37.251Z,102099.69
2022-10-17T13:57:06.376Z,102092.69
2022-10-17T13:59:41.257Z,102093.50
2022-10-17T14:02:17.557Z,102089.41
2022-10-17T14:05:15.296Z,102092.13
2022-10-17T14:08:09.312Z,102085.88
2022-10-17T14:10:39.745Z,102089.97
2022-10-17T14:13:30.685Z,102087.25
2022-10-17T14:16:04.539Z,102081.50
2022-10-17T14:18:36.691Z,102098.63
2022-10-17T14:24:13.441Z,102119.19
2022-10-17T14:26:52.780Z,102104.06
2022-10-17T14:29:28.953Z,102113.56
2022-10-17T14:32:15.570Z,102116.03
2022-10-17T14:34:43.549Z,102114.16
2022-10-17T14:37:21.119Z,102119.81
2022-10-17T14:39:52.180Z,102112.94
2022-10-17T14:42:21.971Z,102118.56
2022-10-17T14:44:51.404Z,102125.66
2022-10-17T14:47:42.121Z,102135.09
2022-10-17T14:50:12.920Z,102131.19
2022-10-17T14:52:41.139Z,102132.78
2022-10-17T14:55:24.402Z,102140.22
2022-10-17T14:57:51.836Z,102143.22
2022-10-17T15:00:21.778Z,102141.44
2022-10-17T15:02:54.633Z,102139.66
2022-10-17T15:05:23.668Z,102141.44
2022-10-17T15:07:51.640Z,102142.03
2022-10-17T15:10:28.608Z,102145.91
2022-10-17T15:12:59.167Z,102147.09
2022-10-17T15:15:33.421Z,102146.75
2022-10-17T15:18:01.025Z,102143.53
2022-10-17T15:20:30.732Z,102136.00
2022-10-17T15:23:00.537Z,102143.69
2022-10-17T15:25:29.541Z,102147.56
2022-10-17T15:27:57.545Z,102151.00
2022-10-17T15:30:28.677Z,102151.06
2022-10-17T15:32:56.527Z,102152.69
2022-10-17T15:35:23.950Z,102152.69
2022-10-17T15:37:51.498Z,102156.94
2022-10-17T15:40:30.143Z,102169.81
2022-10-17T15:42:57.549Z,102172.66
2022-10-17T15:45:25.339Z,102174.53
2022-10-17T15:48:00.788Z,102167.25
2022-10-17T15:50:30.794Z,102166.56
2022-10-17T15:52:58.598Z,102166.69
2022-10-17T15:55:26.346Z,102170.59
2022-10-17T15:57:53.686Z,102172.84
2022-10-17T16:00:24.492Z,102177.31
2022-10-17T16:02:53.020Z,102187.88
2022-10-17T16:05:26.490Z,102193.38
2022-10-17T16:07:54.782Z,102192.50
2022-10-17T16:10:23.574Z,102184.13
2022-10-17T16:12:50.868Z,102185.88
2022-10-17T16:15:28.327Z,102173.00
2022-10-17T16:18:00.460Z,102186.59
2022-10-17T16:20:30.264Z,102181.53
2022-10-17T16:23:00.909Z,102185.78
2022-10-17T16:25:30.231Z,102182.69
2022-10-17T16:27:59.570Z,102182.22
2022-10-17T16:30:29.712Z,102178.06
2022-10-17T16:32:57.668Z,102179.38
2022-10-17T16:35:31.863Z,102186.53
2022-10-17T16:38:02.626Z,102188.19
2022-10-17T16:40:30.394Z,102188.25
2022-10-17T16:43:00.757Z,102177.88
2022-10-17T16:45:28.378Z,102174.84
2022-10-17T16:47:55.954Z,102173.50
2022-10-17T16:50:25.057Z,102180.00
2022-10-17T16:52:52.578Z,102173.56
2022-10-17T16:55:19.954Z,102182.06
2022-10-17T16:57:49.334Z,102177.88
2022-10-17T17:00:17.962Z,102181.63
2022-10-17T17:02:48.685Z,102164.97
2022-10-17T17:05:16.451Z,102174.25
2022-10-17T17:07:44.236Z,102183.00
2022-10-17T17:10:11.652Z,102185.09
2022-10-17T17:12:38.934Z,102194.09
2022-10-17T17:15:06.555Z,102193.47
2022-10-17T17:17:50.319Z,102193.69
2022-10-17T17:20:19.987Z,102188.84
2022-10-17T17:22:47.346Z,102194.97
2022-10-17T17:25:14.922Z,102200.91
2022-10-17T17:27:42.165Z,102210.50
2022-10-17T17:30:10.474Z,102203.84
2022-10-17T17:32:43.268Z,102209.97
2022-10-17T17:35:10.784Z,102214.78
2022-10-17T17:37:38.757Z,102217.59
2022-10-17T17:40:06.975Z,102214.44
2022-10-17T17:42:34.413Z,102218.41
2022-10-17T17:45:02.021Z,102223.59
2022-10-17T17:47:30.161Z,102223.38
2022-10-17T17:49:57.785Z,102222.34
2022-10-17T17:52:25.163Z,102226.47
2022-10-17T17:54:52.583Z,102230.00
2022-10-17T17:57:20.075Z,102230.47
2022-10-17T17:59:50.233Z,102241.91
2022-10-17T18:02:17.671Z,102237.19
2022-10-17T18:04:45.075Z,102232.44
2022-10-17T18:07:14.171Z,102234.31
2022-10-17T18:09:42.240Z,102233.47
2022-10-17T18:12:17.704Z,102227.53
2022-10-17T18:14:49.243Z,102226.84
2022-10-17T18:17:24.683Z,102227.91
2022-10-17T18:20:02.492Z,102229.16
2022-10-17T18:22:30.816Z,102230.03
2022-10-17T18:25:03.263Z,102226.84
2022-10-17T18:27:33.052Z,102229.41
2022-10-17T18:30:00.316Z,102226.25
2022-10-17T18:35:45.677Z,102226.09
2022-10-17T18:38:13.883Z,102225.47
2022-10-17T18:40:41.281Z,102228.19
2022-10-17T18:43:08.630Z,102222.53
2022-10-17T18:45:47.973Z,102217.63
2022-10-17T18:48:15.467Z,102218.84
2022-10-17T18:50:43.803Z,102221.72
2022-10-17T18:53:11.052Z,102227.16
2022-10-17T18:55:40.297Z,102228.19
2022-10-17T18:58:07.575Z,102228.19
2022-10-17T19:00:34.869Z,102227.16
2022-10-17T19:03:05.392Z,102223.00
2022-10-17T19:05:34.277Z,102226.31
2022-10-17T19:08:01.494Z,102217.84
2022-10-17T19:10:28.840Z,102221.41
2022-10-17T19:12:56.268Z,102231.41
2022-10-17T19:15:25.948Z,102235.84
2022-10-17T19:17:58.607Z,102243.75
2022-10-17T19:20:26.177Z,102254.63
2022-10-17T19:22:54.590Z,102253.16
2022-10-17T19:25:22.810Z,102260.03
2022-10-17T19:27:50.078Z,102258.81
2022-10-17T19:30:19.598Z,102264.88
2022-10-17T19:32:48.667Z,102276.94
2022-10-17T19:35:16.442Z,102280.28
2022-10-17T19:37:51.921Z,102282.56
2022-10-17T19:40:19.279Z,102281.31
2022-10-17T19:42:46.497Z,102286.50
2022-10-17T19:45:13.946Z,102289.81
2022-10-17T19:47:41.139Z,102293.38
2022-10-17T19:50:08.781Z,102293.97
2022-10-17T19:52:36.433Z,102299.78
2022-10-17T19:55:03.874Z,102311.69
2022-10-17T19:57:31.676Z,102307.53
2022-10-17T19:59:59.556Z,102321.09
2022-10-17T20:02:27.297Z,102317.34
2022-10-17T20:05:17.093Z,102326.69
2022-10-17T20:07:45.502Z,102325.84
2022-10-17T20:10:12.921Z,102327.50
2022-10-17T20:12:40.018Z,102335.25
2022-10-17T20:15:08.776Z,102325.69
2022-10-17T20:17:36.526Z,102336.09
2022-10-17T20:20:08.731Z,102334.19
2022-10-17T20:22:47.376Z,102336.16
2022-10-17T20:25:18.578Z,102337.19
2022-10-17T20:27:46.444Z,102341.78
2022-10-17T20:30:19.292Z,102338.31
2022-10-17T20:32:48.952Z,102338.91
2022-10-17T20:35:16.297Z,102335.81
2022-10-17T20:37:43.388Z,102332.66
2022-10-17T20:40:34.195Z,102333.88
2022-10-17T20:43:01.260Z,102335.31
2022-10-17T20:45:43.611Z,102347.00
2022-10-17T20:48:16.695Z,102348.72
2022-10-17T20:50:45.169Z,102354.94
2022-10-17T20:56:09.272Z,102344.31
2022-10-17T20:58:36.596Z,102343.50
2022-10-17T21:01:09.217Z,102342.88
2022-10-17T21:03:41.015Z,102340.16
2022-10-17T21:06:15.855Z,102341.38
2022-10-17T21:08:43.595Z,102342.66
2022-10-17T21:11:19.605Z,102340.56
2022-10-17T21:13:48.294Z,102331.16
2022-10-17T21:16:22.922Z,102338.72
2022-10-17T21:18:55.066Z,102340.41
2022-10-17T21:21:30.751Z,102341.03
2022-10-17T21:24:01.560Z,102338.31
2022-10-17T21:26:29.845Z,102336.63
2022-10-17T21:28:59.602Z,102343.50
2022-10-17T21:31:28.665Z,102339.94
2022-10-17T21:34:04.979Z,102341.28
2022-10-17T21:36:32.335Z,102343.56
2022-10-17T21:38:59.606Z,102347.94
2022-10-17T21:41:29.180Z,102349.78
2022-10-17T21:44:07.697Z,102351.91
2022-10-17T21:46:35.105Z,102353.63
2022-10-17T21:49:03.122Z,102354.44
2022-10-17T21:51:30.572Z,102349.47
2022-10-17T21:53:58.505Z,102350.28
2022-10-17T21:56:30.042Z,102352.00
2022-10-17T21:58:58.778Z,102357.03
2022-10-17T22:01:31.652Z,102362.84
2022-10-17T22:04:03.173Z,102363.28
2022-10-17T22:06:41.171Z,102365.41
2022-10-17T22:09:14.331Z,102361.88
2022-10-17T22:11:42.407Z,102357.56
2022-10-17T22:14:15.018Z,102352.72
2022-10-17T22:16:44.490Z,102347.75
2022-10-17T22:19:13.697Z,102340.06
2022-10-17T22:21:41.192Z,102339.22
2022-10-17T22:24:12.556Z,102341.94
2022-10-17T22:26:43.349Z,102354.28
2022-10-17T22:29:11.131Z,102352.75
2022-10-17T22:31:39.453Z,102353.63
2022-10-17T22:34:07.820Z,102347.78
2022-10-17T22:36:36.331Z,102345.94
2022-10-17T22:39:04.908Z,102346.56
2022-10-17T22:41:32.329Z,102345.72
2022-10-17T22:44:00.862Z,102340.88
2022-10-17T22:46:28.594Z,102349.88
2022-10-17T22:48:58.930Z,102338.19
2022-10-17T22:51:27.333Z,102349.00
2022-10-17T22:53:54.524Z,102342.16
2022-10-17T22:56:24.558Z,102337.56
2022-10-17T22:58:52.817Z,102341.94
2022-10-17T23:01:29.426Z,102343.22
2022-10-17T23:03:59.284Z,102344.03
2022-10-17T23:06:27.069Z,102340.28
2022-10-17T23:08:54.209Z,102341.09
2022-10-17T23:11:22.033Z,102344.63
2022-10-17T23:13:57.479Z,102333.63
2022-10-17T23:16:24.877Z,102339.91
2022-10-17T23:18:55.502Z,102341.78
2022-10-17T23:21:22.983Z,102335.56
2022-10-17T23:23:51.242Z,102331.78
2022-10-17T23:26:18.594Z,102328.47
2022-10-17T23:28:45.837Z,102323.06
2022-10-17T23:31:18.923Z,102320.78
2022-10-17T23:33:48.435Z,102308.97
2022-10-17T23:36:19.253Z,102306.91
2022-10-17T23:38:48.109Z,102305.03
2022-10-17T23:41:15.511Z,102303.38
2022-10-17T23:43:43.956Z,102306.53
2022-10-17T23:46:11.618Z,102310.25
2022-10-17T23:48:39.684Z,102296.09
2022-10-17T23:51:08.936Z,102298.19
2022-10-17T23:53:40.076Z,102289.22
2022-10-17T23:56:11.938Z,102289.63
2022-10-17T23:58:39.583Z,102286.91
